createdAt,value
2023-12-09T00:01:43.378Z,11.70
2023-12-09T00:04:12.112Z,11.80
2023-12-09T00:06:47.551Z,11.30
2023-12-09T00:09:19.431Z,11.70
2023-12-09T00:11:48.080Z,12.20
2023-12-09T00:14:16.606Z,11.80
2023-12-09T00:16:45.290Z,11.70
2023-12-09T00:19:14.447Z,11.60
2023-12-09T00:21:43.096Z,11.40
2023-12-09T00:24:11.713Z,11.50
2023-12-09T00:26:41.535Z,11.10
2023-12-09T00:29:10.093Z,11.00
2023-12-09T00:31:38.505Z,11.20
2023-12-09T00:34:08.022Z,11.40
2023-12-09T00:36:36.924Z,11.10
2023-12-09T00:39:06.360Z,10.70
2023-12-09T00:41:34.897Z,10.70
2023-12-09T00:44:04.582Z,10.70
2023-12-09T00:46:33.136Z,10.80
2023-12-09T00:49:02.326Z,10.80
2023-12-09T00:51:31.051Z,11.20
2023-12-09T00:53:59.595Z,10.90
2023-12-09T00:56:34.310Z,10.90
2023-12-09T00:59:06.117Z,11.40
2023-12-09T01:01:35.744Z,11.20
2023-12-09T01:04:04.983Z,11.60
2023-12-09T01:06:33.929Z,11.40
2023-12-09T01:09:02.578Z,11.80
2023-12-09T01:11:31.108Z,11.50
2023-12-09T01:13:59.646Z,11.60
2023-12-09T01:16:29.484Z,11.70
2023-12-09T01:18:57.933Z,11.50
2023-12-09T01:21:26.439Z,10.90
2023-12-09T01:23:54.961Z,10.90
2023-12-09T01:26:23.470Z,10.90
2023-12-09T01:28:52.248Z,10.90
2023-12-09T01:31:20.665Z,11.30
2023-12-09T01:33:50.578Z,11.60
2023-12-09T01:36:19.286Z,11.50
2023-12-09T01:38:47.732Z,11.80
2023-12-09T01:41:16.145Z,11.30
2023-12-09T01:43:49.632Z,11.50
2023-12-09T01:46:19.684Z,11.30
2023-12-09T01:48:50.056Z,11.90
2023-12-09T01:51:19.788Z,12.10
2023-12-09T01:53:48.707Z,11.90
2023-12-09T01:56:18.973Z,12.00
2023-12-09T01:58:47.493Z,12.00
2023-12-09T02:01:16.221Z,12.40
2023-12-09T02:03:44.946Z,11.40
2023-12-09T02:06:14.685Z,12.00
2023-12-09T02:08:43.341Z,12.20
2023-12-09T02:11:19.824Z,12.40
2023-12-09T02:13:57.849Z,12.50
2023-12-09T02:16:31.742Z,12.80
2023-12-09T02:19:02.759Z,12.80
2023-12-09T02:21:32.711Z,12.30
2023-12-09T02:24:02.416Z,12.80
2023-12-09T02:26:31.095Z,12.90
2023-12-09T02:29:05.141Z,12.40
2023-12-09T02:31:36.805Z,11.50
2023-12-09T02:34:06.912Z,11.30
2023-12-09T02:36:37.021Z,11.00
2023-12-09T02:39:08.618Z,10.90
2023-12-09T02:41:37.678Z,11.50
2023-12-09T02:44:07.544Z,11.70
2023-12-09T02:46:36.030Z,11.90
2023-12-09T02:49:05.112Z,12.20
2023-12-09T02:51:33.846Z,11.90
2023-12-09T02:54:02.409Z,11.70
2023-12-09T02:56:32.101Z,11.90
2023-12-09T02:59:00.546Z,12.80
2023-12-09T03:01:29.132Z,13.00
2023-12-09T03:03:57.776Z,12.30
2023-12-09T03:06:26.267Z,12.30
2023-12-09T03:08:54.762Z,11.80
2023-12-09T03:11:31.445Z,11.80
2023-12-09T03:13:59.906Z,12.00
2023-12-09T03:16:28.315Z,11.40
2023-12-09T03:18:57.293Z,11.30
2023-12-09T03:21:25.843Z,11.20
2023-12-09T03:23:54.380Z,11.10
2023-12-09T03:26:22.963Z,10.90
2023-12-09T03:28:52.945Z,11.90
2023-12-09T03:31:22.456Z,11.90
2023-12-09T03:33:51.004Z,12.10
2023-12-09T03:36:19.488Z,12.10
2023-12-09T03:38:48.044Z,11.60
2023-12-09T03:41:16.563Z,11.50
2023-12-09T03:43:45.150Z,11.30
2023-12-09T03:46:16.688Z,11.20
2023-12-09T03:48:45.249Z,11.50
2023-12-09T03:51:13.812Z,11.30
2023-12-09T03:53:43.619Z,11.10
2023-12-09T03:56:12.917Z,11.30
2023-12-09T03:58:41.507Z,11.30
2023-12-09T04:01:10.374Z,11.10
2023-12-09T04:03:40.363Z,11.20
2023-12-09T04:06:09.227Z,11.40
2023-12-09T04:08:38.224Z,11.60
2023-12-09T04:11:07.280Z,11.20
2023-12-09T04:13:35.793Z,11.70
2023-12-09T04:16:03.844Z,11.40
2023-12-09T04:18:32.523Z,10.90
2023-12-09T04:21:02.409Z,11.00
2023-12-09T04:23:31.126Z,11.00
2023-12-09T04:25:59.518Z,11.30
2023-12-09T04:28:27.934Z,11.40
2023-12-09T04:30:56.414Z,11.00
2023-12-09T04:33:24.774Z,11.20
2023-12-09T04:35:53.394Z,11.50
2023-12-09T04:38:23.131Z,11.90
2023-12-09T04:40:51.525Z,12.00
2023-12-09T04:43:20.224Z,12.60
2023-12-09T04:45:48.639Z,12.20
2023-12-09T04:48:17.934Z,12.10
2023-12-09T04:50:46.891Z,12.10
2023-12-09T04:53:15.420Z,11.80
2023-12-09T04:55:45.428Z,12.10
2023-12-09T04:58:14.020Z,11.80
2023-12-09T05:00:42.720Z,11.50
2023-12-09T05:03:11.329Z,11.20
2023-12-09T05:05:39.880Z,11.80
2023-12-09T05:08:08.335Z,12.10
2023-12-09T05:10:36.753Z,12.10
2023-12-09T05:13:06.409Z,12.20
2023-12-09T05:15:35.050Z,12.60
2023-12-09T05:18:03.827Z,12.00
2023-12-09T05:20:32.639Z,13.10
2023-12-09T05:23:01.136Z,12.30
2023-12-09T05:25:29.620Z,11.70
2023-12-09T05:27:57.918Z,12.20
2023-12-09T05:30:28.061Z,11.90
2023-12-09T05:32:55.811Z,12.10
2023-12-09T05:35:24.634Z,11.80
2023-12-09T05:37:53.229Z,11.90
2023-12-09T05:40:21.694Z,11.60
2023-12-09T05:42:50.225Z,11.50
2023-12-09T05:45:19.109Z,11.90
2023-12-09T05:47:48.924Z,11.60
2023-12-09T05:50:17.373Z,11.60
2023-12-09T05:52:45.911Z,11.50
2023-12-09T05:55:17.881Z,11.50
2023-12-09T05:57:46.562Z,11.80
2023-12-09T06:00:15.527Z,12.50
2023-12-09T06:02:44.008Z,12.80
2023-12-09T06:05:13.826Z,12.00
2023-12-09T06:07:42.327Z,13.20
2023-12-09T06:10:13.809Z,13.10
2023-12-09T06:12:43.950Z,12.90
2023-12-09T06:15:13.362Z,12.50
2023-12-09T06:17:41.836Z,12.60
2023-12-09T06:20:11.156Z,13.00
2023-12-09T06:22:40.925Z,12.60
2023-12-09T06:25:10.521Z,12.50
2023-12-09T06:27:39.331Z,12.60
2023-12-09T06:30:11.029Z,12.60
2023-12-09T06:32:39.714Z,12.70
2023-12-09T06:35:08.518Z,13.40
2023-12-09T06:37:37.255Z,14.00
2023-12-09T06:40:08.260Z,14.10
2023-12-09T06:42:38.402Z,13.80
2023-12-09T06:45:07.842Z,14.00
2023-12-09T06:47:36.723Z,13.90
2023-12-09T06:50:07.581Z,14.10
2023-12-09T06:52:36.211Z,14.20
2023-12-09T06:55:04.894Z,13.90
2023-12-09T06:57:34.617Z,14.40
2023-12-09T07:00:06.411Z,14.00
2023-12-09T07:02:44.627Z,13.90
2023-12-09T07:05:21.877Z,14.20
2023-12-09T07:07:52.101Z,14.00
2023-12-09T07:10:21.192Z,13.80
2023-12-09T07:12:50.974Z,14.20
2023-12-09T07:15:19.575Z,14.80
2023-12-09T07:17:48.207Z,15.00
2023-12-09T07:20:16.810Z,14.60
2023-12-09T07:22:45.506Z,14.30
2023-12-09T07:25:14.174Z,14.40
2023-12-09T07:27:42.694Z,14.40
2023-12-09T07:30:18.294Z,13.90
2023-12-09T07:32:46.741Z,14.10
2023-12-09T07:35:18.266Z,14.30
2023-12-09T07:37:48.305Z,14.70
2023-12-09T07:40:17.369Z,14.20
2023-12-09T07:42:46.085Z,14.90
2023-12-09T07:45:15.903Z,14.20
2023-12-09T07:47:44.263Z,14.20
2023-12-09T07:50:13.371Z,14.40
2023-12-09T07:52:42.160Z,14.70
2023-12-09T07:55:11.696Z,15.00
2023-12-09T07:57:40.312Z,14.90
2023-12-09T08:00:09.827Z,14.90
2023-12-09T08:02:40.042Z,14.40
2023-12-09T08:05:08.776Z,14.20
2023-12-09T08:07:37.366Z,14.90
2023-12-09T08:10:14.448Z,14.90
2023-12-09T08:12:50.367Z,14.70
2023-12-09T08:15:26.468Z,14.70
2023-12-09T08:17:59.094Z,14.70
2023-12-09T08:20:32.413Z,14.20
2023-12-09T08:23:03.969Z,14.70
2023-12-09T08:25:37.234Z,14.40
2023-12-09T08:28:09.786Z,13.80
2023-12-09T08:30:43.395Z,14.50
2023-12-09T08:33:16.379Z,14.30
2023-12-09T08:35:49.376Z,14.30
2023-12-09T08:38:20.841Z,14.80
2023-12-09T08:40:54.160Z,14.70
2023-12-09T08:43:26.185Z,14.70
2023-12-09T08:45:54.821Z,14.60
2023-12-09T08:48:25.700Z,14.40
2023-12-09T08:50:57.285Z,14.80
2023-12-09T08:53:28.830Z,15.00
2023-12-09T08:56:00.393Z,14.70
2023-12-09T08:58:31.937Z,15.20
2023-12-09T09:01:03.671Z,15.20
2023-12-09T09:03:36.493Z,14.70
2023-12-09T09:06:08.322Z,14.30
2023-12-09T09:08:39.774Z,14.70
2023-12-09T09:11:13.520Z,15.40
2023-12-09T09:13:44.943Z,15.50
2023-12-09T09:16:18.274Z,15.50
2023-12-09T09:18:54.084Z,15.80
2023-12-09T09:21:30.326Z,15.80
2023-12-09T09:24:05.107Z,15.90
2023-12-09T09:26:41.185Z,16.00
2023-12-09T09:29:17.615Z,16.10
2023-12-09T09:31:53.566Z,16.00
2023-12-09T09:34:29.372Z,16.10
2023-12-09T09:37:02.439Z,15.90
2023-12-09T09:39:36.264Z,16.20
2023-12-09T09:42:19.393Z,16.20
2023-12-09T09:45:06.523Z,15.50
2023-12-09T09:47:41.405Z,15.30
2023-12-09T09:50:16.887Z,15.70
2023-12-09T09:52:51.811Z,15.50
2023-12-09T09:55:24.305Z,15.70
2023-12-09T09:57:54.493Z,15.90
2023-12-09T10:00:25.214Z,15.70
2023-12-09T10:02:57.293Z,15.60
2023-12-09T10:05:29.214Z,16.10
2023-12-09T10:07:59.070Z,16.40
2023-12-09T10:10:29.234Z,16.60
2023-12-09T10:12:59.122Z,16.20
2023-12-09T10:15:30.645Z,15.80
2023-12-09T10:18:04.578Z,15.90
2023-12-09T10:20:40.147Z,15.50
2023-12-09T10:23:10.975Z,15.70
2023-12-09T10:25:42.418Z,15.60
2023-12-09T10:28:13.028Z,16.00
2023-12-09T10:30:48.133Z,16.10
2023-12-09T10:33:21.580Z,16.30
2023-12-09T10:35:58.465Z,16.20
2023-12-09T10:38:32.984Z,16.20
2023-12-09T10:41:10.735Z,16.10
2023-12-09T10:43:45.300Z,15.50
2023-12-09T10:46:21.480Z,15.90
2023-12-09T10:48:56.172Z,16.30
2023-12-09T10:51:33.463Z,16.40
2023-12-09T10:54:08.211Z,16.60
2023-12-09T10:56:42.859Z,16.80
2023-12-09T10:59:17.052Z,16.40
2023-12-09T11:01:52.031Z,17.20
2023-12-09T11:04:25.090Z,17.50
2023-12-09T11:07:05.249Z,17.30
2023-12-09T11:09:41.421Z,16.80
2023-12-09T11:12:10.499Z,17.40
2023-12-09T11:14:39.830Z,17.40
2023-12-09T11:17:34.820Z,16.90
2023-12-09T11:20:11.091Z,17.20
2023-12-09T11:22:42.357Z,16.60
2023-12-09T11:25:13.365Z,16.50
2023-12-09T11:27:41.804Z,16.60
2023-12-09T11:30:32.877Z,17.10
2023-12-09T11:33:03.435Z,16.90
2023-12-09T11:35:34.120Z,17.30
2023-12-09T11:38:07.670Z,17.20
2023-12-09T11:40:38.537Z,17.20
2023-12-09T11:43:09.511Z,16.50
2023-12-09T11:45:39.966Z,16.80
2023-12-09T11:48:10.701Z,16.50
2023-12-09T11:50:48.049Z,16.90
2023-12-09T11:53:23.692Z,16.50
2023-12-09T11:55:59.946Z,16.50
2023-12-09T11:58:32.969Z,16.90
2023-12-09T12:01:07.860Z,16.50
2023-12-09T12:03:40.924Z,16.50
2023-12-09T12:06:15.785Z,16.80
2023-12-09T12:08:52.269Z,16.90
2023-12-09T12:11:25.834Z,16.50
2023-12-09T12:13:56.714Z,16.30
2023-12-09T12:16:28.380Z,15.80
2023-12-09T12:18:58.537Z,15.80
2023-12-09T12:21:30.175Z,16.10
2023-12-09T12:24:06.973Z,15.90
2023-12-09T12:26:38.573Z,15.60
2023-12-09T12:29:09.960Z,16.30
2023-12-09T12:31:43.117Z,16.40
2023-12-09T12:34:21.813Z,16.60
2023-12-09T12:36:55.037Z,16.50
2023-12-09T12:39:28.120Z,17.00
2023-12-09T12:42:02.281Z,16.70
2023-12-09T12:44:33.792Z,16.60
2023-12-09T12:47:03.949Z,16.40
2023-12-09T12:49:38.712Z,16.30
2023-12-09T12:52:12.216Z,16.10
2023-12-09T12:54:46.420Z,16.20
2023-12-09T12:57:20.776Z,16.40
2023-12-09T12:59:53.851Z,16.60
2023-12-09T13:02:26.976Z,17.00
2023-12-09T13:04:58.762Z,16.40
2023-12-09T13:07:30.397Z,16.40
2023-12-09T13:10:05.008Z,16.40
2023-12-09T13:12:37.153Z,16.10
2023-12-09T13:15:09.851Z,16.70
2023-12-09T13:17:41.948Z,16.30
2023-12-09T13:20:12.969Z,16.20
2023-12-09T13:22:43.139Z,16.20
2023-12-09T13:25:17.795Z,16.10
2023-12-09T13:27:48.676Z,16.10
2023-12-09T13:30:18.999Z,16.50
2023-12-09T13:32:49.067Z,16.20
2023-12-09T13:35:19.870Z,16.40
2023-12-09T13:37:49.942Z,16.50
2023-12-09T13:40:21.458Z,16.40
2023-12-09T13:42:51.545Z,16.20
2023-12-09T13:45:22.792Z,16.40
2023-12-09T13:47:53.075Z,16.50
2023-12-09T13:50:27.679Z,16.00
2023-12-09T13:53:01.248Z,15.40
2023-12-09T13:55:36.015Z,15.90
2023-12-09T13:58:09.086Z,16.00
2023-12-09T14:00:42.313Z,16.10
2023-12-09T14:03:14.133Z,16.00
2023-12-09T14:05:47.440Z,16.60
2023-12-09T14:08:19.668Z,16.60
2023-12-09T14:10:52.460Z,16.80
2023-12-09T14:13:22.924Z,16.90
2023-12-09T14:15:54.560Z,17.30
2023-12-09T14:18:24.719Z,16.40
2023-12-09T14:20:53.821Z,16.00
2023-12-09T14:23:22.398Z,15.60
2023-12-09T14:25:52.500Z,16.10
2023-12-09T14:28:21.053Z,16.40
2023-12-09T14:30:53.343Z,16.40
2023-12-09T14:33:25.186Z,16.80
2023-12-09T14:35:57.102Z,17.00
2023-12-09T14:38:27.373Z,17.70
2023-12-09T14:40:58.983Z,18.00
2023-12-09T14:43:29.322Z,17.80
2023-12-09T14:45:59.455Z,17.20
2023-12-09T14:48:32.632Z,17.30
2023-12-09T14:51:03.207Z,16.90
2023-12-09T14:53:34.322Z,16.30
2023-12-09T14:56:05.670Z,16.20
2023-12-09T14:58:39.575Z,15.90
2023-12-09T15:01:11.361Z,16.00
2023-12-09T15:03:45.818Z,15.90
2023-12-09T15:06:17.301Z,16.60
2023-12-09T15:08:53.424Z,16.80
2023-12-09T15:11:30.773Z,16.40
2023-12-09T15:14:07.041Z,16.40
2023-12-09T15:16:41.528Z,16.20
2023-12-09T15:19:17.825Z,16.70
2023-12-09T15:21:49.422Z,16.40
2023-12-09T15:24:26.220Z,16.60
2023-12-09T15:26:59.077Z,16.20
2023-12-09T15:29:34.063Z,15.80
2023-12-09T15:32:05.572Z,15.50
2023-12-09T15:34:38.682Z,15.50
2023-12-09T15:37:10.251Z,15.90
2023-12-09T15:39:43.366Z,16.20
2023-12-09T15:42:16.331Z,16.20
2023-12-09T15:44:47.189Z,16.10
2023-12-09T15:47:17.395Z,16.20
2023-12-09T15:49:47.450Z,15.90
2023-12-09T15:52:17.562Z,15.80
2023-12-09T15:54:47.812Z,15.90
2023-12-09T15:57:17.693Z,15.60
2023-12-09T15:59:49.559Z,15.60
2023-12-09T16:02:18.042Z,15.70
2023-12-09T16:04:46.645Z,16.00
2023-12-09T16:07:15.572Z,15.50
2023-12-09T16:09:51.781Z,15.60
2023-12-09T16:12:22.716Z,15.80
2023-12-09T16:14:54.857Z,15.50
2023-12-09T16:17:23.637Z,15.80
2023-12-09T16:19:53.842Z,15.90
2023-12-09T16:22:23.909Z,15.40
2023-12-09T16:24:55.636Z,15.80
2023-12-09T16:27:27.744Z,15.70
2023-12-09T16:30:00.808Z,15.50
2023-12-09T16:32:32.764Z,15.40
2023-12-09T16:35:06.145Z,15.50
2023-12-09T16:37:38.848Z,15.30
2023-12-09T16:40:16.201Z,15.50
2023-12-09T16:42:47.589Z,14.30
2023-12-09T16:45:19.235Z,13.80
2023-12-09T16:47:49.471Z,13.60
2023-12-09T16:50:21.281Z,13.50
2023-12-09T16:52:51.406Z,13.50
2023-12-09T16:55:23.019Z,13.30
2023-12-09T16:57:54.142Z,13.00
2023-12-09T17:00:25.956Z,12.80
2023-12-09T17:02:56.118Z,12.50
2023-12-09T17:05:27.790Z,12.40
2023-12-09T17:07:58.058Z,12.30
2023-12-09T17:10:30.243Z,12.30
2023-12-09T17:13:00.566Z,12.20
2023-12-09T17:15:29.442Z,12.10
2023-12-09T17:17:59.170Z,12.20
2023-12-09T17:20:32.558Z,12.00
2023-12-09T17:23:05.509Z,12.00
2023-12-09T17:25:38.629Z,11.90
2023-12-09T17:28:12.857Z,11.80
2023-12-09T17:30:46.004Z,11.90
2023-12-09T17:33:19.316Z,11.90
2023-12-09T17:35:52.383Z,11.80
2023-12-09T17:38:25.387Z,11.80
2023-12-09T17:40:59.031Z,11.80
2023-12-09T17:43:33.280Z,11.70
2023-12-09T17:46:06.361Z,12.10
2023-12-09T17:48:39.085Z,12.30
2023-12-09T17:51:12.280Z,12.10
2023-12-09T17:53:43.888Z,12.60
2023-12-09T17:56:17.111Z,12.30
2023-12-09T17:58:55.610Z,12.40
2023-12-09T18:01:30.832Z,12.60
2023-12-09T18:04:01.364Z,12.20
2023-12-09T18:06:32.029Z,12.40
2023-12-09T18:09:00.662Z,12.70
2023-12-09T18:11:29.489Z,13.00
2023-12-09T18:13:59.334Z,12.70
2023-12-09T18:16:27.139Z,12.50
2023-12-09T18:18:58.612Z,12.40
2023-12-09T18:21:30.176Z,12.60
2023-12-09T18:23:58.975Z,12.40
2023-12-09T18:26:27.953Z,12.60
2023-12-09T18:28:56.549Z,13.20
2023-12-09T18:31:26.279Z,12.60
2023-12-09T18:33:54.920Z,12.80
2023-12-09T18:36:23.544Z,12.20
2023-12-09T18:38:56.813Z,12.30
2023-12-09T18:41:28.317Z,12.50
2023-12-09T18:44:01.376Z,12.40
2023-12-09T18:46:34.382Z,12.50
2023-12-09T18:49:07.558Z,12.20
2023-12-09T18:51:39.181Z,12.40
2023-12-09T18:54:10.836Z,12.30
2023-12-09T18:56:40.923Z,12.10
2023-12-09T18:59:17.584Z,12.30
2023-12-09T19:02:01.604Z,12.00
2023-12-09T19:04:42.894Z,12.60
2023-12-09T19:07:16.255Z,13.00
2023-12-09T19:09:52.505Z,12.60
2023-12-09T19:12:25.886Z,12.50
2023-12-09T19:15:00.812Z,12.40
2023-12-09T19:17:35.331Z,12.60
2023-12-09T19:20:08.364Z,12.40
2023-12-09T19:22:39.856Z,12.50
2023-12-09T19:25:11.654Z,12.60
2023-12-09T19:27:43.520Z,12.90
2023-12-09T19:30:17.411Z,12.70
2023-12-09T19:32:51.710Z,12.20
2023-12-09T19:35:22.158Z,12.20
2023-12-09T19:37:51.122Z,12.10
2023-12-09T19:40:19.746Z,12.30
2023-12-09T19:42:48.223Z,12.40
2023-12-09T19:45:16.922Z,12.40
2023-12-09T19:47:45.508Z,12.20
2023-12-09T19:50:19.705Z,12.70
2023-12-09T19:52:50.795Z,12.20
2023-12-09T19:55:19.330Z,12.20
2023-12-09T19:57:48.190Z,12.10
2023-12-09T20:00:16.963Z,12.30
2023-12-09T20:02:47.937Z,11.90
2023-12-09T20:05:19.303Z,12.00
2023-12-09T20:07:47.987Z,11.80
2023-12-09T20:10:19.809Z,11.80
2023-12-09T20:12:49.764Z,12.10
2023-12-09T20:15:18.488Z,12.20
2023-12-09T20:17:47.150Z,12.60
2023-12-09T20:20:15.789Z,12.70
2023-12-09T20:22:45.535Z,12.50
2023-12-09T20:25:14.781Z,12.00
2023-12-09T20:27:43.448Z,12.50
2023-12-09T20:30:14.315Z,12.40
2023-12-09T20:32:43.354Z,12.20
2023-12-09T20:35:12.187Z,12.80
2023-12-09T20:37:40.634Z,12.40
2023-12-09T20:40:11.358Z,12.40
2023-12-09T20:42:41.120Z,12.60
2023-12-09T20:45:10.077Z,12.80
2023-12-09T20:47:40.642Z,12.70
2023-12-09T20:50:14.925Z,12.40
2023-12-09T20:52:45.069Z,12.30
2023-12-09T20:55:17.466Z,12.00
2023-12-09T20:57:47.824Z,12.30
2023-12-09T21:00:18.752Z,12.00
2023-12-09T21:02:48.943Z,12.50
2023-12-09T21:05:19.529Z,11.90
2023-12-09T21:07:48.456Z,12.20
2023-12-09T21:10:21.679Z,12.30
2023-12-09T21:12:52.966Z,12.30
2023-12-09T21:15:21.996Z,12.20
2023-12-09T21:17:50.501Z,12.20
2023-12-09T21:20:19.623Z,12.30
2023-12-09T21:22:48.427Z,12.50
2023-12-09T21:25:18.367Z,12.70
2023-12-09T21:27:46.899Z,12.30
2023-12-09T21:30:19.096Z,12.60
2023-12-09T21:32:50.703Z,12.80
2023-12-09T21:35:20.837Z,12.50
2023-12-09T21:37:49.318Z,13.00
2023-12-09T21:40:20.897Z,12.80
2023-12-09T21:42:51.059Z,12.90
2023-12-09T21:45:21.950Z,12.90
2023-12-09T21:47:55.475Z,13.40
2023-12-09T21:50:29.413Z,12.40
2023-12-09T21:53:01.001Z,12.50
2023-12-09T21:55:35.603Z,12.80
2023-12-09T21:58:06.823Z,12.80
2023-12-09T22:00:37.624Z,12.70
2023-12-09T22:03:06.226Z,12.60
2023-12-09T22:05:35.531Z,12.80
2023-12-09T22:08:04.128Z,12.50
2023-12-09T22:10:37.947Z,12.40
2023-12-09T22:13:11.113Z,12.20
2023-12-09T22:15:42.433Z,12.70
2023-12-09T22:18:14.180Z,13.10
2023-12-09T22:20:42.761Z,12.80
2023-12-09T22:23:11.199Z,13.10
2023-12-09T22:25:40.915Z,13.00
2023-12-09T22:28:09.439Z,12.30
2023-12-09T22:30:38.710Z,12.40
2023-12-09T22:33:07.508Z,12.10
2023-12-09T22:35:36.193Z,12.30
2023-12-09T22:38:04.918Z,12.80
2023-12-09T22:40:35.004Z,12.30
2023-12-09T22:43:04.945Z,11.90
2023-12-09T22:45:34.023Z,12.20
2023-12-09T22:48:03.618Z,12.50
2023-12-09T22:50:35.509Z,12.30
2023-12-09T22:53:04.060Z,12.40
2023-12-09T22:55:34.005Z,12.50
2023-12-09T22:58:02.624Z,12.40
2023-12-09T23:00:34.360Z,12.80
2023-12-09T23:03:04.312Z,12.50
2023-12-09T23:05:33.774Z,12.80
2023-12-09T23:08:02.262Z,12.90
2023-12-09T23:10:33.874Z,12.80
2023-12-09T23:13:03.984Z,12.80
2023-12-09T23:15:36.821Z,13.60
2023-12-09T23:18:07.449Z,13.60
2023-12-09T23:20:37.613Z,13.60
2023-12-09T23:23:06.125Z,13.20
2023-12-09T23:25:34.674Z,13.00
2023-12-09T23:28:04.374Z,13.80
2023-12-09T23:30:36.549Z,13.80
2023-12-09T23:33:05.876Z,14.00
2023-12-09T23:35:34.753Z,14.20
2023-12-09T23:38:03.557Z,13.50
2023-12-09T23:40:32.385Z,13.20
2023-12-09T23:43:00.966Z,12.70
2023-12-09T23:45:29.546Z,12.50
2023-12-09T23:47:59.528Z,12.40
2023-12-09T23:50:28.117Z,12.20
2023-12-09T23:52:56.697Z,12.20
2023-12-09T23:55:25.201Z,12.20
2023-12-09T23:57:53.798Z,12.20
